ALA3638 UGTB-UWLL
Flight info
| Callsign | ALA3638 |
|---|---|
| Flight time | 1h 42m |
| Altitude | 36000 |
| Route | LAPTO N82 NIRGA/K0872F350 R807 UROBO P135 DAFOS T789 NEPNI NEPNI1E |
| Aircraft | B77L/H-SDE1E2E3FGHIJ2J3J4J5M1RWXY/LB1D1 |
Departure
| Time | 2026-04-30 17:41 |
|---|---|
| Airport | Tbilisi International Airport (UGTB) |
Arrival
| Time | 2026-04-30 19:24 |
|---|---|
| Airport | Ulyanovsk Baratayevka Airport (UWLL) |
| Time | Latitude | Longitude | Altitude | Speed | Heading |
|---|---|---|---|---|---|
| 2026-04-30 17:39 | 41.74585 | 44.91629 | 13375 ft | 403 kts | 1° |
| 2026-04-30 17:41 | 41.95800 | 44.83788 | 18008 ft | 417 kts | 320° |
| 2026-04-30 17:42 | 42.00551 | 44.79254 | 19092 ft | 423 kts | 320° |
| 2026-04-30 17:42 | 42.07824 | 44.72307 | 20745 ft | 431 kts | 321° |
| 2026-04-30 17:43 | 42.12782 | 44.67563 | 21689 ft | 438 kts | 321° |
| 2026-04-30 17:44 | 42.20264 | 44.60387 | 23091 ft | 444 kts | 321° |
| 2026-04-30 17:44 | 42.27896 | 44.53048 | 24377 ft | 450 kts | 321° |
| 2026-04-30 17:46 | 42.40705 | 44.40677 | 26096 ft | 463 kts | 320° |
| 2026-04-30 17:47 | 42.51213 | 44.30484 | 27880 ft | 463 kts | 320° |
| 2026-04-30 17:48 | 42.61579 | 44.20581 | 30142 ft | 459 kts | 325° |
| 2026-04-30 17:48 | 42.70770 | 44.16403 | 30160 ft | 472 kts | 342° |
| 2026-04-30 17:50 | 42.96234 | 44.08775 | 30159 ft | 468 kts | 341° |
| 2026-04-30 17:52 | 43.15242 | 44.02948 | 30175 ft | 467 kts | 341° |
| 2026-04-30 17:54 | 43.43729 | 43.94067 | 30147 ft | 467 kts | 341° |
| 2026-04-30 17:56 | 43.68979 | 43.86150 | 30141 ft | 466 kts | 341° |
| 2026-04-30 17:58 | 43.87930 | 43.80165 | 30129 ft | 464 kts | 341° |
| 2026-04-30 18:00 | 44.13047 | 43.72215 | 30134 ft | 463 kts | 340° |
| 2026-04-30 18:01 | 44.28729 | 43.67222 | 30133 ft | 463 kts | 340° |
| 2026-04-30 18:02 | 44.47504 | 43.61212 | 30137 ft | 462 kts | 340° |
| 2026-04-30 18:04 | 44.66340 | 43.55164 | 30145 ft | 464 kts | 339° |
| 2026-04-30 18:05 | 44.78442 | 43.49693 | 31628 ft | 437 kts | 321° |
| 2026-04-30 18:06 | 44.89751 | 43.43300 | 32537 ft | 467 kts | 346° |
| 2026-04-30 18:07 | 45.03041 | 43.45694 | 33399 ft | 488 kts | 3° |
| 2026-04-30 18:08 | 45.12998 | 43.48574 | 33978 ft | 487 kts | 2° |
| 2026-04-30 18:09 | 45.26326 | 43.52445 | 34683 ft | 485 kts | 2° |
| 2026-04-30 18:10 | 45.39566 | 43.56306 | 35015 ft | 489 kts | 2° |
| 2026-04-30 18:11 | 45.52779 | 43.60183 | 35159 ft | 482 kts | 2° |
| 2026-04-30 18:11 | 45.62697 | 43.63101 | 35167 ft | 485 kts | 2° |
| 2026-04-30 18:13 | 45.79211 | 43.67985 | 35170 ft | 487 kts | 2° |
| 2026-04-30 18:14 | 45.95731 | 43.72901 | 35170 ft | 486 kts | 2° |
| 2026-04-30 18:15 | 46.15580 | 43.78846 | 35164 ft | 489 kts | 3° |
| 2026-04-30 18:16 | 46.28459 | 43.82729 | 35167 ft | 487 kts | 3° |
| 2026-04-30 18:17 | 46.35045 | 43.84722 | 35159 ft | 488 kts | 3° |
| 2026-04-30 18:18 | 46.45108 | 43.87771 | 35163 ft | 492 kts | 3° |
| 2026-04-30 18:18 | 46.51767 | 43.89798 | 35165 ft | 493 kts | 4° |
| 2026-04-30 18:19 | 46.58515 | 43.91857 | 35172 ft | 494 kts | 4° |
| 2026-04-30 18:19 | 46.65214 | 43.93908 | 35158 ft | 493 kts | 4° |
| 2026-04-30 18:20 | 46.71973 | 43.95980 | 35166 ft | 494 kts | 4° |
| 2026-04-30 18:20 | 46.78700 | 43.98048 | 35170 ft | 496 kts | 4° |
| 2026-04-30 18:21 | 46.85480 | 44.00138 | 35174 ft | 495 kts | 4° |
| 2026-04-30 18:21 | 46.92160 | 44.02204 | 35161 ft | 493 kts | 4° |
| 2026-04-30 18:22 | 46.98888 | 44.04289 | 35151 ft | 494 kts | 4° |
| 2026-04-30 18:22 | 47.09019 | 44.07438 | 35174 ft | 496 kts | 4° |
| 2026-04-30 18:23 | 47.15766 | 44.09543 | 35159 ft | 496 kts | 4° |
| 2026-04-30 18:23 | 47.22474 | 44.11641 | 35154 ft | 494 kts | 5° |
| 2026-04-30 18:24 | 47.32567 | 44.14806 | 35158 ft | 496 kts | 5° |
| 2026-04-30 18:25 | 47.39301 | 44.16927 | 35155 ft | 494 kts | 5° |
| 2026-04-30 18:25 | 47.49415 | 44.20120 | 35158 ft | 495 kts | 5° |
| 2026-04-30 18:26 | 47.59538 | 44.23329 | 35156 ft | 497 kts | 5° |
| 2026-04-30 18:27 | 47.69611 | 44.26536 | 35152 ft | 494 kts | 5° |
| 2026-04-30 18:28 | 47.79694 | 44.29758 | 35160 ft | 494 kts | 6° |
| 2026-04-30 18:28 | 47.89785 | 44.32993 | 35154 ft | 496 kts | 6° |
| 2026-04-30 18:29 | 48.03119 | 44.38882 | 35156 ft | 502 kts | 12° |
| 2026-04-30 18:30 | 48.16359 | 44.45289 | 35153 ft | 500 kts | 12° |
| 2026-04-30 18:31 | 48.26273 | 44.50103 | 35162 ft | 501 kts | 12° |
| 2026-04-30 18:32 | 48.36232 | 44.54958 | 35151 ft | 503 kts | 12° |
| 2026-04-30 18:33 | 48.46144 | 44.59811 | 35154 ft | 502 kts | 12° |
| 2026-04-30 18:33 | 48.56129 | 44.64718 | 35155 ft | 503 kts | 13° |
| 2026-04-30 18:34 | 48.66101 | 44.69640 | 35139 ft | 504 kts | 14° |
| 2026-04-30 18:35 | 48.72730 | 44.72939 | 35146 ft | 505 kts | 13° |
| 2026-04-30 18:35 | 48.79350 | 44.76243 | 35142 ft | 503 kts | 14° |
| 2026-04-30 18:36 | 48.89386 | 44.80917 | 35142 ft | 503 kts | 11° |
| 2026-04-30 18:37 | 48.99475 | 44.85094 | 35157 ft | 502 kts | 11° |
| 2026-04-30 18:37 | 49.06191 | 44.87907 | 35142 ft | 502 kts | 11° |
| 2026-04-30 18:38 | 49.12922 | 44.90744 | 35137 ft | 504 kts | 11° |
| 2026-04-30 18:38 | 49.19687 | 44.93610 | 35135 ft | 503 kts | 11° |
| 2026-04-30 18:39 | 49.26382 | 44.96456 | 35131 ft | 502 kts | 11° |
| 2026-04-30 18:39 | 49.33113 | 44.99328 | 35131 ft | 502 kts | 11° |
| 2026-04-30 18:40 | 49.39859 | 45.02214 | 35128 ft | 503 kts | 11° |
| 2026-04-30 18:40 | 49.46570 | 45.05096 | 35125 ft | 503 kts | 12° |
| 2026-04-30 18:41 | 49.53338 | 45.08010 | 35124 ft | 503 kts | 12° |
| 2026-04-30 18:41 | 49.60075 | 45.10918 | 35123 ft | 503 kts | 12° |
| 2026-04-30 18:42 | 49.66820 | 45.13839 | 35108 ft | 502 kts | 12° |
| 2026-04-30 18:42 | 49.76908 | 45.18245 | 35112 ft | 503 kts | 12° |
| 2026-04-30 18:45 | 50.13876 | 45.33389 | 35089 ft | 500 kts | 8° |
| 2026-04-30 18:46 | 50.20671 | 45.35663 | 35092 ft | 500 kts | 8° |
| 2026-04-30 18:46 | 50.27439 | 45.37953 | 35091 ft | 502 kts | 8° |
| 2026-04-30 18:47 | 50.34258 | 45.40278 | 35084 ft | 501 kts | 9° |
| 2026-04-30 18:47 | 50.41029 | 45.42599 | 35077 ft | 501 kts | 9° |
| 2026-04-30 18:48 | 50.47808 | 45.44931 | 35075 ft | 502 kts | 9° |
| 2026-04-30 18:48 | 50.54644 | 45.47293 | 35071 ft | 501 kts | 9° |
| 2026-04-30 18:49 | 50.61414 | 45.49639 | 35066 ft | 501 kts | 9° |
| 2026-04-30 18:49 | 50.68191 | 45.51996 | 35056 ft | 501 kts | 9° |
| 2026-04-30 18:50 | 50.74995 | 45.54368 | 35050 ft | 501 kts | 9° |
| 2026-04-30 18:50 | 50.81646 | 45.57536 | 35058 ft | 505 kts | 18° |
| 2026-04-30 18:51 | 50.88217 | 45.61612 | 35047 ft | 504 kts | 19° |
| 2026-04-30 18:51 | 50.94726 | 45.65671 | 35044 ft | 504 kts | 20° |
| 2026-04-30 18:52 | 51.01213 | 45.69725 | 35036 ft | 504 kts | 20° |
| 2026-04-30 18:52 | 51.07725 | 45.73806 | 35020 ft | 504 kts | 20° |
| 2026-04-30 18:53 | 51.14270 | 45.77918 | 35031 ft | 504 kts | 20° |
| 2026-04-30 18:53 | 51.20771 | 45.82015 | 35034 ft | 505 kts | 20° |
| 2026-04-30 18:54 | 51.27289 | 45.86135 | 35033 ft | 505 kts | 20° |
| 2026-04-30 18:54 | 51.33818 | 45.90274 | 35025 ft | 505 kts | 20° |
| 2026-04-30 18:55 | 51.40300 | 45.94397 | 35024 ft | 504 kts | 20° |
| 2026-04-30 18:55 | 51.50027 | 46.00606 | 35040 ft | 504 kts | 20° |
| 2026-04-30 18:56 | 51.59625 | 46.07333 | 35040 ft | 504 kts | 26° |
| 2026-04-30 18:57 | 51.69003 | 46.15066 | 35041 ft | 505 kts | 26° |
| 2026-04-30 18:57 | 51.75195 | 46.20190 | 35040 ft | 504 kts | 26° |
| 2026-04-30 18:58 | 51.84517 | 46.27929 | 35035 ft | 504 kts | 26° |
| 2026-04-30 18:59 | 51.93866 | 46.35723 | 35016 ft | 503 kts | 26° |
| 2026-04-30 19:00 | 52.06227 | 46.46083 | 35006 ft | 503 kts | 26° |
| 2026-04-30 19:01 | 52.18647 | 46.56559 | 34989 ft | 503 kts | 26° |
| 2026-04-30 19:02 | 52.27942 | 46.64445 | 34996 ft | 503 kts | 27° |
| 2026-04-30 19:03 | 52.40380 | 46.75058 | 34985 ft | 504 kts | 27° |
| 2026-04-30 19:04 | 52.52729 | 46.85663 | 34985 ft | 495 kts | 28° |
| 2026-04-30 19:05 | 52.64874 | 46.96154 | 34989 ft | 490 kts | 28° |
| 2026-04-30 19:05 | 52.70966 | 47.01443 | 34226 ft | 515 kts | 28° |
| 2026-04-30 19:06 | 52.77248 | 47.06912 | 34009 ft | 496 kts | 28° |
| 2026-04-30 19:06 | 52.80277 | 47.09556 | 33579 ft | 486 kts | 28° |
| 2026-04-30 19:06 | 52.86190 | 47.14733 | 32298 ft | 484 kts | 28° |
| 2026-04-30 19:07 | 52.92073 | 47.19899 | 31204 ft | 478 kts | 28° |
| 2026-04-30 19:07 | 52.95001 | 47.22477 | 30693 ft | 473 kts | 27° |
| 2026-04-30 19:08 | 53.00746 | 47.27545 | 29537 ft | 465 kts | 28° |
| 2026-04-30 19:08 | 53.06347 | 47.32501 | 28462 ft | 455 kts | 28° |
| 2026-04-30 19:08 | 53.09141 | 47.34979 | 27842 ft | 451 kts | 29° |
| 2026-04-30 19:09 | 53.14432 | 47.39681 | 26321 ft | 447 kts | 29° |
| 2026-04-30 19:09 | 53.17198 | 47.42144 | 25548 ft | 444 kts | 29° |
| 2026-04-30 19:09 | 53.19873 | 47.44529 | 24833 ft | 439 kts | 30° |
| 2026-04-30 19:10 | 53.25163 | 47.49256 | 23437 ft | 426 kts | 30° |
| 2026-04-30 19:10 | 53.30322 | 47.53878 | 22025 ft | 415 kts | 30° |
| 2026-04-30 19:11 | 53.32822 | 47.56123 | 21367 ft | 409 kts | 30° |
| 2026-04-30 19:11 | 53.37779 | 47.60582 | 19957 ft | 401 kts | 30° |
| 2026-04-30 19:11 | 53.40212 | 47.62776 | 19182 ft | 398 kts | 30° |
| 2026-04-30 19:12 | 53.42615 | 47.64946 | 18390 ft | 396 kts | 30° |
| 2026-04-30 19:12 | 53.45017 | 47.67117 | 17597 ft | 394 kts | 31° |
| 2026-04-30 19:12 | 53.47429 | 47.69283 | 16798 ft | 392 kts | 28° |
| 2026-04-30 19:13 | 53.52428 | 47.72718 | 15242 ft | 387 kts | 23° |
| 2026-04-30 19:13 | 53.57375 | 47.75978 | 13686 ft | 381 kts | 23° |
| 2026-04-30 19:13 | 53.59817 | 47.77592 | 12921 ft | 378 kts | 23° |
| 2026-04-30 19:14 | 53.62217 | 47.79181 | 12155 ft | 374 kts | 23° |
| 2026-04-30 19:14 | 53.64623 | 47.80777 | 11376 ft | 370 kts | 23° |
| 2026-04-30 19:14 | 53.67009 | 47.82362 | 10606 ft | 366 kts | 23° |
| 2026-04-30 19:14 | 53.69344 | 47.83920 | 9834 ft | 362 kts | 24° |
| 2026-04-30 19:15 | 53.71642 | 47.85457 | 9075 ft | 357 kts | 20° |
| 2026-04-30 19:15 | 53.76259 | 47.87815 | 8058 ft | 335 kts | 18° |
| 2026-04-30 19:15 | 53.78453 | 47.88920 | 7635 ft | 323 kts | 19° |
| 2026-04-30 19:16 | 53.80553 | 47.89978 | 7234 ft | 313 kts | 19° |
| 2026-04-30 19:16 | 53.82623 | 47.91022 | 6828 ft | 305 kts | 19° |
| 2026-04-30 19:16 | 53.86585 | 47.93026 | 5994 ft | 290 kts | 19° |
| 2026-04-30 19:17 | 53.88462 | 47.93976 | 5625 ft | 276 kts | 19° |
| 2026-04-30 19:17 | 53.92045 | 47.95793 | 4919 ft | 263 kts | 19° |
| 2026-04-30 19:17 | 53.93788 | 47.96680 | 4531 ft | 258 kts | 19° |
| 2026-04-30 19:18 | 53.96032 | 47.97822 | 4044 ft | 252 kts | 19° |
| 2026-04-30 19:18 | 53.99071 | 47.99385 | 3853 ft | 305 kts | 19° |
| 2026-04-30 19:18 | 54.01096 | 48.00419 | 3784 ft | 289 kts | 19° |
| 2026-04-30 19:19 | 54.02943 | 48.01358 | 3431 ft | 270 kts | 19° |
| 2026-04-30 19:19 | 54.04670 | 48.02237 | 3203 ft | 253 kts | 19° |
| 2026-04-30 19:19 | 54.07960 | 48.03922 | 2449 ft | 245 kts | 19° |
| 2026-04-30 19:20 | 54.09586 | 48.04756 | 2093 ft | 241 kts | 18° |
| 2026-04-30 19:20 | 54.11203 | 48.05673 | 2046 ft | 243 kts | 27° |
| 2026-04-30 19:20 | 54.14104 | 48.08631 | 2045 ft | 242 kts | 33° |
| 2026-04-30 19:21 | 54.15521 | 48.10163 | 2048 ft | 243 kts | 33° |
| 2026-04-30 19:21 | 54.18304 | 48.13148 | 2016 ft | 222 kts | 33° |
| 2026-04-30 19:22 | 54.20691 | 48.15832 | 1819 ft | 199 kts | 33° |
| 2026-04-30 19:22 | 54.24070 | 48.19410 | 946 ft | 173 kts | 32° |
| 2026-04-30 19:23 | 54.26712 | 48.22230 | 431 ft | 111 kts | 32° |
| 2026-04-30 19:24 | 54.27591 | 48.23186 | 404 ft | 30 kts | 47° |
| 2026-04-30 19:24 | 54.27663 | 48.23483 | 399 ft | 20 kts | 78° |
| 2026-04-30 19:24 | 54.27673 | 48.23554 | 398 ft | 0 kts | 77° |
| 2026-04-30 19:25 | 54.27674 | 48.23566 | 398 ft | 5 kts | 77° |
| 2026-04-30 19:26 | 54.27754 | 48.23774 | 394 ft | 13 kts | 36° |
| 2026-04-30 19:26 | 54.27940 | 48.23985 | 384 ft | 20 kts | 31° |
| 2026-04-30 19:26 | 54.28067 | 48.24120 | 379 ft | 19 kts | 32° |
| 2026-04-30 19:27 | 54.28201 | 48.24121 | 374 ft | 12 kts | 306° |
| 2026-04-30 19:27 | 54.28298 | 48.23870 | 372 ft | 12 kts | 302° |
| 2026-04-30 19:28 | 54.28343 | 48.23746 | 372 ft | 12 kts | 302° |
| 2026-04-30 19:28 | 54.28365 | 48.23687 | 371 ft | 0 kts | 302° |
| 2026-04-30 19:29 | 54.28384 | 48.23635 | 371 ft | 5 kts | 302° |
| 2026-04-30 19:29 | 54.28409 | 48.23579 | 370 ft | 5 kts | 339° |
| 2026-04-30 19:30 | 54.28462 | 48.23588 | 369 ft | 1 kts | 319° |
| 2026-04-30 19:30 | 54.28498 | 48.23577 | 368 ft | 1 kts | 44° |
| 2026-04-30 19:31 | 54.28476 | 48.23546 | 369 ft | 4 kts | 35° |
| 2026-04-30 19:31 | 54.28477 | 48.23546 | 369 ft | 1 kts | 35° |
| 2026-04-30 19:31 | 54.28477 | 48.23547 | 369 ft | 0 kts | 35° |